sensor_id;sensor_type;location;lat;lon;timestamp;P1;durP1;ratioP1;P2;durP2;ratioP2
79624;SDS011;69101;45.534;10.218;2023-04-22T00:01:22;10.52;;;4.53;;
79624;SDS011;69101;45.534;10.218;2023-04-22T00:03:48;10.82;;;4.40;;
79624;SDS011;69101;45.534;10.218;2023-04-22T00:06:14;10.40;;;4.35;;
79624;SDS011;69101;45.534;10.218;2023-04-22T00:08:40;10.85;;;4.00;;
79624;SDS011;69101;45.534;10.218;2023-04-22T00:11:05;10.65;;;4.25;;
79624;SDS011;69101;45.534;10.218;2023-04-22T00:13:31;10.82;;;4.30;;
79624;SDS011;69101;45.534;10.218;2023-04-22T00:15:56;11.60;;;4.15;;
79624;SDS011;69101;45.534;10.218;2023-04-22T00:18:22;10.43;;;4.32;;
79624;SDS011;69101;45.534;10.218;2023-04-22T00:20:47;10.73;;;4.20;;
79624;SDS011;69101;45.534;10.218;2023-04-22T00:23:13;10.45;;;4.20;;
79624;SDS011;69101;45.534;10.218;2023-04-22T00:25:38;10.90;;;4.13;;
79624;SDS011;69101;45.534;10.218;2023-04-22T00:28:04;10.48;;;4.18;;
79624;SDS011;69101;45.534;10.218;2023-04-22T00:30:30;10.68;;;4.13;;
79624;SDS011;69101;45.534;10.218;2023-04-22T00:32:56;10.23;;;3.97;;
79624;SDS011;69101;45.534;10.218;2023-04-22T00:35:21;10.05;;;3.92;;
79624;SDS011;69101;45.534;10.218;2023-04-22T00:37:46;9.98;;;4.03;;
79624;SDS011;69101;45.534;10.218;2023-04-22T00:40:12;9.85;;;3.95;;
79624;SDS011;69101;45.534;10.218;2023-04-22T00:42:37;11.30;;;4.18;;
79624;SDS011;69101;45.534;10.218;2023-04-22T00:45:03;9.80;;;3.85;;
79624;SDS011;69101;45.534;10.218;2023-04-22T00:47:34;9.77;;;4.07;;
79624;SDS011;69101;45.534;10.218;2023-04-22T00:50:00;10.65;;;3.90;;
79624;SDS011;69101;45.534;10.218;2023-04-22T00:52:27;10.32;;;4.10;;
79624;SDS011;69101;45.534;10.218;2023-04-22T00:54:52;9.90;;;4.00;;
79624;SDS011;69101;45.534;10.218;2023-04-22T00:57:18;10.77;;;4.20;;
79624;SDS011;69101;45.534;10.218;2023-04-22T00:59:43;11.57;;;4.18;;
79624;SDS011;69101;45.534;10.218;2023-04-22T01:02:09;10.50;;;3.90;;
79624;SDS011;69101;45.534;10.218;2023-04-22T01:04:35;10.90;;;4.00;;
79624;SDS011;69101;45.534;10.218;2023-04-22T01:07:01;11.55;;;3.92;;
79624;SDS011;69101;45.534;10.218;2023-04-22T01:09:26;10.57;;;3.90;;
79624;SDS011;69101;45.534;10.218;2023-04-22T01:11:51;10.00;;;3.85;;
79624;SDS011;69101;45.534;10.218;2023-04-22T01:14:17;11.07;;;4.10;;
79624;SDS011;69101;45.534;10.218;2023-04-22T01:16:42;11.20;;;4.18;;
79624;SDS011;69101;45.534;10.218;2023-04-22T01:19:10;10.05;;;3.75;;
79624;SDS011;69101;45.534;10.218;2023-04-22T01:21:35;10.48;;;4.10;;
79624;SDS011;69101;45.534;10.218;2023-04-22T01:24:03;10.10;;;3.85;;
79624;SDS011;69101;45.534;10.218;2023-04-22T01:26:29;10.20;;;3.88;;
79624;SDS011;69101;45.534;10.218;2023-04-22T01:28:54;10.38;;;3.85;;
79624;SDS011;69101;45.534;10.218;2023-04-22T01:31:20;10.10;;;4.10;;
79624;SDS011;69101;45.534;10.218;2023-04-22T01:33:46;9.73;;;3.60;;
79624;SDS011;69101;45.534;10.218;2023-04-22T01:36:12;10.18;;;4.10;;
79624;SDS011;69101;45.534;10.218;2023-04-22T01:38:38;9.98;;;4.07;;
79624;SDS011;69101;45.534;10.218;2023-04-22T01:41:03;9.73;;;3.72;;
79624;SDS011;69101;45.534;10.218;2023-04-22T01:43:29;11.25;;;3.92;;
79624;SDS011;69101;45.534;10.218;2023-04-22T01:45:55;9.70;;;3.90;;
79624;SDS011;69101;45.534;10.218;2023-04-22T01:48:21;11.23;;;3.75;;
79624;SDS011;69101;45.534;10.218;2023-04-22T01:50:46;9.85;;;3.83;;
79624;SDS011;69101;45.534;10.218;2023-04-22T01:53:12;9.90;;;3.75;;
79624;SDS011;69101;45.534;10.218;2023-04-22T01:55:37;9.57;;;3.65;;
79624;SDS011;69101;45.534;10.218;2023-04-22T01:58:03;9.95;;;3.78;;
79624;SDS011;69101;45.534;10.218;2023-04-22T02:00:29;9.48;;;3.38;;
79624;SDS011;69101;45.534;10.218;2023-04-22T02:02:55;10.18;;;3.45;;
79624;SDS011;69101;45.534;10.218;2023-04-22T02:05:20;10.05;;;3.72;;
79624;SDS011;69101;45.534;10.218;2023-04-22T02:07:46;10.60;;;3.70;;
79624;SDS011;69101;45.534;10.218;2023-04-22T02:10:16;11.25;;;4.10;;
79624;SDS011;69101;45.534;10.218;2023-04-22T02:12:41;10.32;;;3.75;;
79624;SDS011;69101;45.534;10.218;2023-04-22T02:15:06;10.82;;;3.83;;
79624;SDS011;69101;45.534;10.218;2023-04-22T02:17:32;10.00;;;3.85;;
79624;SDS011;69101;45.534;10.218;2023-04-22T02:19:58;11.55;;;4.13;;
79624;SDS011;69101;45.534;10.218;2023-04-22T02:22:23;9.73;;;3.70;;
79624;SDS011;69101;45.534;10.218;2023-04-22T02:24:49;10.02;;;3.60;;
79624;SDS011;69101;45.534;10.218;2023-04-22T02:27:14;9.68;;;3.58;;
79624;SDS011;69101;45.534;10.218;2023-04-22T02:29:40;10.30;;;3.85;;
79624;SDS011;69101;45.534;10.218;2023-04-22T02:32:05;10.32;;;3.78;;
79624;SDS011;69101;45.534;10.218;2023-04-22T02:34:31;10.07;;;3.65;;
79624;SDS011;69101;45.534;10.218;2023-04-22T02:36:56;9.70;;;3.33;;
79624;SDS011;69101;45.534;10.218;2023-04-22T02:39:21;10.23;;;3.53;;
79624;SDS011;69101;45.534;10.218;2023-04-22T02:41:47;10.70;;;3.80;;
79624;SDS011;69101;45.534;10.218;2023-04-22T02:44:12;9.52;;;3.70;;
79624;SDS011;69101;45.534;10.218;2023-04-22T02:46:37;10.93;;;3.80;;
79624;SDS011;69101;45.534;10.218;2023-04-22T02:49:03;10.18;;;3.80;;
79624;SDS011;69101;45.534;10.218;2023-04-22T02:51:28;9.70;;;3.60;;
79624;SDS011;69101;45.534;10.218;2023-04-22T02:53:53;9.98;;;3.58;;
79624;SDS011;69101;45.534;10.218;2023-04-22T02:56:19;10.50;;;3.55;;
79624;SDS011;69101;45.534;10.218;2023-04-22T02:58:44;10.02;;;3.40;;
79624;SDS011;69101;45.534;10.218;2023-04-22T03:01:10;9.93;;;3.63;;
79624;SDS011;69101;45.534;10.218;2023-04-22T03:03:35;9.77;;;3.58;;
79624;SDS011;69101;45.534;10.218;2023-04-22T03:06:01;10.07;;;3.80;;
79624;SDS011;69101;45.534;10.218;2023-04-22T03:08:26;9.38;;;3.42;;
79624;SDS011;69101;45.534;10.218;2023-04-22T03:10:51;9.98;;;3.50;;
79624;SDS011;69101;45.534;10.218;2023-04-22T03:13:17;10.00;;;3.70;;
79624;SDS011;69101;45.534;10.218;2023-04-22T03:15:42;9.40;;;3.50;;
79624;SDS011;69101;45.534;10.218;2023-04-22T03:18:07;10.60;;;3.55;;
79624;SDS011;69101;45.534;10.218;2023-04-22T03:20:33;9.90;;;3.75;;
79624;SDS011;69101;45.534;10.218;2023-04-22T03:22:59;9.82;;;3.63;;
79624;SDS011;69101;45.534;10.218;2023-04-22T03:25:25;9.70;;;3.53;;
79624;SDS011;69101;45.534;10.218;2023-04-22T03:27:50;9.57;;;3.47;;
79624;SDS011;69101;45.534;10.218;2023-04-22T03:30:15;10.13;;;3.55;;
79624;SDS011;69101;45.534;10.218;2023-04-22T03:32:41;9.63;;;3.50;;
79624;SDS011;69101;45.534;10.218;2023-04-22T03:35:06;11.18;;;3.83;;
79624;SDS011;69101;45.534;10.218;2023-04-22T03:37:32;9.52;;;3.30;;
79624;SDS011;69101;45.534;10.218;2023-04-22T03:39:57;9.60;;;3.55;;
79624;SDS011;69101;45.534;10.218;2023-04-22T03:42:23;10.00;;;3.53;;
79624;SDS011;69101;45.534;10.218;2023-04-22T03:44:48;10.30;;;3.50;;
79624;SDS011;69101;45.534;10.218;2023-04-22T03:47:13;10.27;;;3.75;;
79624;SDS011;69101;45.534;10.218;2023-04-22T03:49:39;9.82;;;3.60;;
79624;SDS011;69101;45.534;10.218;2023-04-22T03:52:04;10.07;;;3.33;;
79624;SDS011;69101;45.534;10.218;2023-04-22T03:54:30;9.60;;;3.40;;
79624;SDS011;69101;45.534;10.218;2023-04-22T03:56:55;10.20;;;3.50;;
79624;SDS011;69101;45.534;10.218;2023-04-22T03:59:20;9.93;;;3.50;;
79624;SDS011;69101;45.534;10.218;2023-04-22T04:01:46;9.55;;;3.15;;
79624;SDS011;69101;45.534;10.218;2023-04-22T04:04:11;10.45;;;3.60;;
79624;SDS011;69101;45.534;10.218;2023-04-22T04:06:37;9.82;;;3.33;;
79624;SDS011;69101;45.534;10.218;2023-04-22T04:09:02;9.38;;;3.38;;
79624;SDS011;69101;45.534;10.218;2023-04-22T04:11:29;9.65;;;3.60;;
79624;SDS011;69101;45.534;10.218;2023-04-22T04:13:55;9.80;;;3.20;;
79624;SDS011;69101;45.534;10.218;2023-04-22T04:16:20;10.07;;;3.45;;
79624;SDS011;69101;45.534;10.218;2023-04-22T04:18:48;9.98;;;3.17;;
79624;SDS011;69101;45.534;10.218;2023-04-22T04:21:14;10.00;;;3.30;;
79624;SDS011;69101;45.534;10.218;2023-04-22T04:23:40;9.50;;;3.22;;
79624;SDS011;69101;45.534;10.218;2023-04-22T04:26:05;9.30;;;3.33;;
79624;SDS011;69101;45.534;10.218;2023-04-22T04:28:31;9.57;;;3.30;;
79624;SDS011;69101;45.534;10.218;2023-04-22T04:30:58;9.07;;;2.88;;
79624;SDS011;69101;45.534;10.218;2023-04-22T04:33:24;10.25;;;3.33;;
79624;SDS011;69101;45.534;10.218;2023-04-22T04:35:51;9.10;;;3.20;;
79624;SDS011;69101;45.534;10.218;2023-04-22T04:38:16;10.07;;;3.33;;
79624;SDS011;69101;45.534;10.218;2023-04-22T04:40:41;9.63;;;3.22;;
79624;SDS011;69101;45.534;10.218;2023-04-22T04:43:07;10.77;;;3.60;;
79624;SDS011;69101;45.534;10.218;2023-04-22T04:45:33;9.55;;;3.28;;
79624;SDS011;69101;45.534;10.218;2023-04-22T04:48:00;9.45;;;3.35;;
79624;SDS011;69101;45.534;10.218;2023-04-22T04:50:26;9.70;;;3.10;;
79624;SDS011;69101;45.534;10.218;2023-04-22T04:52:52;8.80;;;2.90;;
79624;SDS011;69101;45.534;10.218;2023-04-22T04:55:17;9.93;;;3.50;;
79624;SDS011;69101;45.534;10.218;2023-04-22T04:57:43;10.40;;;3.35;;
79624;SDS011;69101;45.534;10.218;2023-04-22T05:00:09;9.30;;;3.30;;
79624;SDS011;69101;45.534;10.218;2023-04-22T05:02:35;9.98;;;3.55;;
79624;SDS011;69101;45.534;10.218;2023-04-22T05:05:00;9.75;;;3.25;;
79624;SDS011;69101;45.534;10.218;2023-04-22T05:07:26;9.35;;;3.33;;
79624;SDS011;69101;45.534;10.218;2023-04-22T05:09:51;9.48;;;3.25;;
79624;SDS011;69101;45.534;10.218;2023-04-22T05:12:16;9.13;;;2.92;;
79624;SDS011;69101;45.534;10.218;2023-04-22T05:14:42;9.50;;;3.00;;
79624;SDS011;69101;45.534;10.218;2023-04-22T05:17:07;11.00;;;3.47;;
79624;SDS011;69101;45.534;10.218;2023-04-22T05:19:32;9.07;;;2.72;;
79624;SDS011;69101;45.534;10.218;2023-04-22T05:21:58;9.65;;;3.28;;
79624;SDS011;69101;45.534;10.218;2023-04-22T05:24:23;9.07;;;3.00;;
79624;SDS011;69101;45.534;10.218;2023-04-22T05:26:49;9.68;;;3.17;;
79624;SDS011;69101;45.534;10.218;2023-04-22T05:29:14;9.73;;;3.13;;
79624;SDS011;69101;45.534;10.218;2023-04-22T05:31:40;9.65;;;3.30;;
79624;SDS011;69101;45.534;10.218;2023-04-22T05:34:05;9.43;;;3.03;;
79624;SDS011;69101;45.534;10.218;2023-04-22T05:36:30;8.60;;;2.92;;
79624;SDS011;69101;45.534;10.218;2023-04-22T05:38:56;10.27;;;3.30;;
79624;SDS011;69101;45.534;10.218;2023-04-22T05:41:21;9.00;;;3.08;;
79624;SDS011;69101;45.534;10.218;2023-04-22T05:43:47;9.25;;;2.97;;
79624;SDS011;69101;45.534;10.218;2023-04-22T05:46:12;9.95;;;3.17;;
79624;SDS011;69101;45.534;10.218;2023-04-22T05:48:37;9.30;;;3.30;;
79624;SDS011;69101;45.534;10.218;2023-04-22T05:51:03;9.30;;;3.20;;
79624;SDS011;69101;45.534;10.218;2023-04-22T05:53:28;9.55;;;3.00;;
79624;SDS011;69101;45.534;10.218;2023-04-22T05:55:54;9.35;;;3.00;;
79624;SDS011;69101;45.534;10.218;2023-04-22T05:58:19;8.90;;;3.08;;
79624;SDS011;69101;45.534;10.218;2023-04-22T06:00:45;9.30;;;3.20;;
79624;SDS011;69101;45.534;10.218;2023-04-22T06:03:10;9.10;;;3.10;;
79624;SDS011;69101;45.534;10.218;2023-04-22T06:05:36;9.90;;;2.83;;
79624;SDS011;69101;45.534;10.218;2023-04-22T06:08:01;9.15;;;2.97;;
79624;SDS011;69101;45.534;10.218;2023-04-22T06:10:26;9.45;;;3.10;;
79624;SDS011;69101;45.534;10.218;2023-04-22T06:12:52;10.23;;;3.30;;
79624;SDS011;69101;45.534;10.218;2023-04-22T06:15:17;9.60;;;2.88;;
79624;SDS011;69101;45.534;10.218;2023-04-22T06:17:42;9.20;;;3.10;;
79624;SDS011;69101;45.534;10.218;2023-04-22T06:20:09;8.93;;;2.80;;
79624;SDS011;69101;45.534;10.218;2023-04-22T06:22:35;9.13;;;2.90;;
79624;SDS011;69101;45.534;10.218;2023-04-22T06:25:01;9.43;;;3.10;;
79624;SDS011;69101;45.534;10.218;2023-04-22T06:27:26;9.73;;;3.10;;
79624;SDS011;69101;45.534;10.218;2023-04-22T06:29:52;10.20;;;3.40;;
79624;SDS011;69101;45.534;10.218;2023-04-22T06:32:17;8.80;;;2.85;;
79624;SDS011;69101;45.534;10.218;2023-04-22T06:34:42;8.95;;;2.95;;
79624;SDS011;69101;45.534;10.218;2023-04-22T06:37:08;9.07;;;2.85;;
79624;SDS011;69101;45.534;10.218;2023-04-22T06:39:33;9.60;;;3.05;;
79624;SDS011;69101;45.534;10.218;2023-04-22T06:41:59;8.85;;;2.97;;
79624;SDS011;69101;45.534;10.218;2023-04-22T06:44:25;9.48;;;2.88;;
79624;SDS011;69101;45.534;10.218;2023-04-22T06:46:51;9.32;;;3.15;;
79624;SDS011;69101;45.534;10.218;2023-04-22T06:49:16;8.95;;;2.90;;
79624;SDS011;69101;45.534;10.218;2023-04-22T06:51:41;8.63;;;2.90;;
79624;SDS011;69101;45.534;10.218;2023-04-22T06:54:07;8.70;;;2.90;;
79624;SDS011;69101;45.534;10.218;2023-04-22T06:56:32;8.98;;;2.85;;
79624;SDS011;69101;45.534;10.218;2023-04-22T06:59:00;9.32;;;2.58;;
79624;SDS011;69101;45.534;10.218;2023-04-22T07:01:25;8.73;;;2.80;;
79624;SDS011;69101;45.534;10.218;2023-04-22T07:03:50;8.88;;;3.03;;
79624;SDS011;69101;45.534;10.218;2023-04-22T07:06:16;9.10;;;2.85;;
79624;SDS011;69101;45.534;10.218;2023-04-22T07:08:41;8.68;;;2.85;;
79624;SDS011;69101;45.534;10.218;2023-04-22T07:11:07;9.25;;;3.03;;
79624;SDS011;69101;45.534;10.218;2023-04-22T07:13:33;8.77;;;3.00;;
79624;SDS011;69101;45.534;10.218;2023-04-22T07:15:59;9.45;;;3.00;;
79624;SDS011;69101;45.534;10.218;2023-04-22T07:18:24;8.50;;;2.65;;
79624;SDS011;69101;45.534;10.218;2023-04-22T07:20:50;8.77;;;2.70;;
79624;SDS011;69101;45.534;10.218;2023-04-22T07:23:15;9.15;;;2.88;;
79624;SDS011;69101;45.534;10.218;2023-04-22T07:25:41;8.85;;;2.83;;
79624;SDS011;69101;45.534;10.218;2023-04-22T07:28:06;9.30;;;3.00;;
79624;SDS011;69101;45.534;10.218;2023-04-22T07:30:32;9.05;;;3.00;;
79624;SDS011;69101;45.534;10.218;2023-04-22T07:32:57;9.25;;;2.80;;
79624;SDS011;69101;45.534;10.218;2023-04-22T07:35:23;8.73;;;2.85;;
79624;SDS011;69101;45.534;10.218;2023-04-22T07:37:48;8.57;;;2.50;;
79624;SDS011;69101;45.534;10.218;2023-04-22T07:40:13;9.43;;;2.90;;
79624;SDS011;69101;45.534;10.218;2023-04-22T07:42:39;8.90;;;2.85;;
79624;SDS011;69101;45.534;10.218;2023-04-22T07:45:05;9.43;;;3.05;;
79624;SDS011;69101;45.534;10.218;2023-04-22T07:47:31;8.82;;;2.90;;
79624;SDS011;69101;45.534;10.218;2023-04-22T07:49:56;8.75;;;2.70;;
79624;SDS011;69101;45.534;10.218;2023-04-22T07:52:22;8.15;;;2.55;;
79624;SDS011;69101;45.534;10.218;2023-04-22T07:54:47;9.00;;;2.83;;
79624;SDS011;69101;45.534;10.218;2023-04-22T07:57:13;9.25;;;3.10;;
79624;SDS011;69101;45.534;10.218;2023-04-22T07:59:38;9.75;;;3.03;;
79624;SDS011;69101;45.534;10.218;2023-04-22T08:02:03;9.35;;;2.83;;
79624;SDS011;69101;45.534;10.218;2023-04-22T08:04:29;8.60;;;2.60;;
79624;SDS011;69101;45.534;10.218;2023-04-22T08:06:54;8.80;;;2.63;;
79624;SDS011;69101;45.534;10.218;2023-04-22T08:09:20;8.57;;;2.67;;
79624;SDS011;69101;45.534;10.218;2023-04-22T08:11:45;8.55;;;2.78;;
79624;SDS011;69101;45.534;10.218;2023-04-22T08:14:10;9.13;;;3.00;;
79624;SDS011;69101;45.534;10.218;2023-04-22T08:16:36;8.75;;;2.58;;
79624;SDS011;69101;45.534;10.218;2023-04-22T08:19:03;8.82;;;2.80;;
79624;SDS011;69101;45.534;10.218;2023-04-22T08:21:28;8.90;;;2.83;;
79624;SDS011;69101;45.534;10.218;2023-04-22T08:23:55;8.63;;;2.55;;
79624;SDS011;69101;45.534;10.218;2023-04-22T08:26:21;8.82;;;2.80;;
79624;SDS011;69101;45.534;10.218;2023-04-22T08:28:46;9.13;;;3.00;;
79624;SDS011;69101;45.534;10.218;2023-04-22T08:31:12;8.85;;;3.03;;
79624;SDS011;69101;45.534;10.218;2023-04-22T08:33:40;8.93;;;2.90;;
79624;SDS011;69101;45.534;10.218;2023-04-22T08:36:06;8.70;;;2.35;;
79624;SDS011;69101;45.534;10.218;2023-04-22T08:38:33;7.63;;;2.50;;
79624;SDS011;69101;45.534;10.218;2023-04-22T08:40:58;8.05;;;2.42;;
79624;SDS011;69101;45.534;10.218;2023-04-22T08:43:24;8.38;;;2.47;;
79624;SDS011;69101;45.534;10.218;2023-04-22T08:45:50;8.25;;;2.60;;
79624;SDS011;69101;45.534;10.218;2023-04-22T08:48:16;8.90;;;2.88;;
79624;SDS011;69101;45.534;10.218;2023-04-22T08:50:43;9.18;;;3.00;;
79624;SDS011;69101;45.534;10.218;2023-04-22T08:53:09;8.65;;;2.60;;
79624;SDS011;69101;45.534;10.218;2023-04-22T08:55:35;9.18;;;3.17;;
79624;SDS011;69101;45.534;10.218;2023-04-22T08:58:00;9.30;;;3.03;;
79624;SDS011;69101;45.534;10.218;2023-04-22T09:00:29;8.70;;;2.72;;
79624;SDS011;69101;45.534;10.218;2023-04-22T09:02:56;9.40;;;2.83;;
79624;SDS011;69101;45.534;10.218;2023-04-22T09:05:26;9.10;;;3.22;;
79624;SDS011;69101;45.534;10.218;2023-04-22T09:07:52;9.30;;;2.92;;
79624;SDS011;69101;45.534;10.218;2023-04-22T09:10:18;8.77;;;2.80;;
79624;SDS011;69101;45.534;10.218;2023-04-22T09:12:44;8.70;;;2.60;;
79624;SDS011;69101;45.534;10.218;2023-04-22T09:15:11;8.43;;;2.60;;
79624;SDS011;69101;45.534;10.218;2023-04-22T09:17:36;8.40;;;2.58;;
79624;SDS011;69101;45.534;10.218;2023-04-22T09:20:03;10.38;;;3.72;;
79624;SDS011;69101;45.534;10.218;2023-04-22T09:22:41;9.52;;;2.83;;
79624;SDS011;69101;45.534;10.218;2023-04-22T09:25:14;8.90;;;2.85;;
79624;SDS011;69101;45.534;10.218;2023-04-22T09:27:41;9.00;;;2.80;;
79624;SDS011;69101;45.534;10.218;2023-04-22T09:30:07;9.13;;;2.85;;
79624;SDS011;69101;45.534;10.218;2023-04-22T09:32:33;9.27;;;3.03;;
79624;SDS011;69101;45.534;10.218;2023-04-22T09:34:58;8.13;;;2.67;;
79624;SDS011;69101;45.534;10.218;2023-04-22T09:37:25;9.23;;;2.90;;
79624;SDS011;69101;45.534;10.218;2023-04-22T09:39:51;10.15;;;3.03;;
79624;SDS011;69101;45.534;10.218;2023-04-22T09:42:17;8.98;;;2.90;;
79624;SDS011;69101;45.534;10.218;2023-04-22T09:44:47;8.93;;;3.08;;
79624;SDS011;69101;45.534;10.218;2023-04-22T09:47:16;10.30;;;3.47;;
79624;SDS011;69101;45.534;10.218;2023-04-22T09:49:46;10.55;;;3.63;;
79624;SDS011;69101;45.534;10.218;2023-04-22T09:52:19;10.20;;;3.53;;
79624;SDS011;69101;45.534;10.218;2023-04-22T09:54:50;10.35;;;3.80;;
79624;SDS011;69101;45.534;10.218;2023-04-22T09:57:16;9.73;;;3.47;;
79624;SDS011;69101;45.534;10.218;2023-04-22T09:59:42;8.82;;;2.75;;
79624;SDS011;69101;45.534;10.218;2023-04-22T10:02:07;9.57;;;3.30;;
79624;SDS011;69101;45.534;10.218;2023-04-22T10:04:33;9.60;;;3.92;;
79624;SDS011;69101;45.534;10.218;2023-04-22T10:06:59;10.98;;;3.78;;
79624;SDS011;69101;45.534;10.218;2023-04-22T10:09:26;9.30;;;3.35;;
79624;SDS011;69101;45.534;10.218;2023-04-22T10:11:53;9.60;;;3.40;;
79624;SDS011;69101;45.534;10.218;2023-04-22T10:14:22;9.30;;;3.08;;
79624;SDS011;69101;45.534;10.218;2023-04-22T10:16:48;8.88;;;2.55;;
79624;SDS011;69101;45.534;10.218;2023-04-22T10:19:16;10.30;;;3.45;;
79624;SDS011;69101;45.534;10.218;2023-04-22T10:21:45;11.15;;;4.63;;
79624;SDS011;69101;45.534;10.218;2023-04-22T10:24:13;9.98;;;3.63;;
79624;SDS011;69101;45.534;10.218;2023-04-22T10:29:18;10.63;;;4.60;;
79624;SDS011;69101;45.534;10.218;2023-04-22T10:31:56;8.77;;;2.70;;
79624;SDS011;69101;45.534;10.218;2023-04-22T10:34:29;10.52;;;4.07;;
79624;SDS011;69101;45.534;10.218;2023-04-22T10:37:11;9.45;;;3.40;;
79624;SDS011;69101;45.534;10.218;2023-04-22T10:39:39;8.70;;;3.00;;
79624;SDS011;69101;45.534;10.218;2023-04-22T10:42:10;10.07;;;3.42;;
79624;SDS011;69101;45.534;10.218;2023-04-22T10:47:28;10.15;;;3.65;;
79624;SDS011;69101;45.534;10.218;2023-04-22T10:50:18;8.93;;;2.97;;
79624;SDS011;69101;45.534;10.218;2023-04-22T10:55:22;9.40;;;3.33;;
79624;SDS011;69101;45.534;10.218;2023-04-22T10:57:48;11.02;;;4.78;;
79624;SDS011;69101;45.534;10.218;2023-04-22T11:02:50;10.20;;;3.50;;
79624;SDS011;69101;45.534;10.218;2023-04-22T11:05:21;8.93;;;2.95;;
79624;SDS011;69101;45.534;10.218;2023-04-22T11:07:52;11.70;;;5.40;;
79624;SDS011;69101;45.534;10.218;2023-04-22T11:13:04;9.90;;;3.80;;
79624;SDS011;69101;45.534;10.218;2023-04-22T11:15:31;10.38;;;4.47;;
79624;SDS011;69101;45.534;10.218;2023-04-22T11:17:58;11.25;;;4.82;;
79624;SDS011;69101;45.534;10.218;2023-04-22T11:20:24;12.05;;;5.75;;
79624;SDS011;69101;45.534;10.218;2023-04-22T11:22:51;8.75;;;3.17;;
79624;SDS011;69101;45.534;10.218;2023-04-22T11:25:18;9.65;;;3.38;;
79624;SDS011;69101;45.534;10.218;2023-04-22T11:27:44;9.30;;;3.55;;
79624;SDS011;69101;45.534;10.218;2023-04-22T11:30:31;8.75;;;2.80;;
79624;SDS011;69101;45.534;10.218;2023-04-22T11:32:57;9.85;;;3.40;;
79624;SDS011;69101;45.534;10.218;2023-04-22T11:35:30;10.05;;;4.00;;
79624;SDS011;69101;45.534;10.218;2023-04-22T11:38:01;10.70;;;3.53;;
79624;SDS011;69101;45.534;10.218;2023-04-22T11:43:04;10.15;;;4.20;;
79624;SDS011;69101;45.534;10.218;2023-04-22T11:45:31;8.98;;;3.10;;
79624;SDS011;69101;45.534;10.218;2023-04-22T11:47:58;8.00;;;2.60;;
79624;SDS011;69101;45.534;10.218;2023-04-22T11:50:26;8.40;;;2.45;;
79624;SDS011;69101;45.534;10.218;2023-04-22T11:55:44;9.82;;;3.58;;
79624;SDS011;69101;45.534;10.218;2023-04-22T11:58:12;9.38;;;3.25;;
79624;SDS011;69101;45.534;10.218;2023-04-22T12:00:40;8.50;;;2.75;;
79624;SDS011;69101;45.534;10.218;2023-04-22T12:03:11;10.43;;;3.00;;
79624;SDS011;69101;45.534;10.218;2023-04-22T12:05:46;10.43;;;4.10;;
79624;SDS011;69101;45.534;10.218;2023-04-22T12:08:16;10.68;;;4.40;;
79624;SDS011;69101;45.534;10.218;2023-04-22T12:10:50;12.52;;;5.75;;
79624;SDS011;69101;45.534;10.218;2023-04-22T12:15:57;12.15;;;5.07;;
79624;SDS011;69101;45.534;10.218;2023-04-22T12:18:27;11.90;;;5.07;;
79624;SDS011;69101;45.534;10.218;2023-04-22T12:23:28;11.15;;;4.90;;
79624;SDS011;69101;45.534;10.218;2023-04-22T12:25:54;11.40;;;5.20;;
79624;SDS011;69101;45.534;10.218;2023-04-22T12:28:19;9.93;;;3.55;;
79624;SDS011;69101;45.534;10.218;2023-04-22T12:30:45;8.73;;;2.75;;
79624;SDS011;69101;45.534;10.218;2023-04-22T12:33:10;9.23;;;3.03;;
79624;SDS011;69101;45.534;10.218;2023-04-22T12:35:36;9.80;;;3.60;;
79624;SDS011;69101;45.534;10.218;2023-04-22T12:38:01;11.45;;;4.70;;
79624;SDS011;69101;45.534;10.218;2023-04-22T12:40:27;9.50;;;3.25;;
79624;SDS011;69101;45.534;10.218;2023-04-22T12:42:52;10.13;;;3.50;;
79624;SDS011;69101;45.534;10.218;2023-04-22T12:45:17;10.52;;;3.92;;
79624;SDS011;69101;45.534;10.218;2023-04-22T12:47:43;9.30;;;3.00;;
79624;SDS011;69101;45.534;10.218;2023-04-22T12:50:09;9.20;;;2.83;;
79624;SDS011;69101;45.534;10.218;2023-04-22T12:52:34;9.55;;;3.40;;
79624;SDS011;69101;45.534;10.218;2023-04-22T12:55:00;11.07;;;3.67;;
79624;SDS011;69101;45.534;10.218;2023-04-22T12:57:25;9.63;;;3.70;;
79624;SDS011;69101;45.534;10.218;2023-04-22T12:59:51;9.32;;;3.45;;
79624;SDS011;69101;45.534;10.218;2023-04-22T13:02:16;8.90;;;2.75;;
79624;SDS011;69101;45.534;10.218;2023-04-22T13:04:41;8.50;;;2.53;;
79624;SDS011;69101;45.534;10.218;2023-04-22T13:07:07;9.32;;;3.50;;
79624;SDS011;69101;45.534;10.218;2023-04-22T13:09:32;8.43;;;2.65;;
79624;SDS011;69101;45.534;10.218;2023-04-22T13:11:58;8.63;;;3.10;;
79624;SDS011;69101;45.534;10.218;2023-04-22T13:14:24;8.90;;;2.40;;
79624;SDS011;69101;45.534;10.218;2023-04-22T13:16:50;9.10;;;2.80;;
79624;SDS011;69101;45.534;10.218;2023-04-22T13:19:15;8.50;;;2.70;;
79624;SDS011;69101;45.534;10.218;2023-04-22T13:21:41;8.38;;;2.50;;
79624;SDS011;69101;45.534;10.218;2023-04-22T13:24:06;8.90;;;2.65;;
79624;SDS011;69101;45.534;10.218;2023-04-22T13:26:33;9.30;;;3.25;;
79624;SDS011;69101;45.534;10.218;2023-04-22T13:29:00;11.63;;;4.88;;
79624;SDS011;69101;45.534;10.218;2023-04-22T13:31:25;10.40;;;4.05;;
79624;SDS011;69101;45.534;10.218;2023-04-22T13:33:51;7.90;;;2.55;;
79624;SDS011;69101;45.534;10.218;2023-04-22T13:36:16;8.60;;;2.65;;
79624;SDS011;69101;45.534;10.218;2023-04-22T13:38:41;8.60;;;2.55;;
79624;SDS011;69101;45.534;10.218;2023-04-22T13:41:07;8.43;;;2.55;;
79624;SDS011;69101;45.534;10.218;2023-04-22T13:43:32;8.40;;;2.40;;
79624;SDS011;69101;45.534;10.218;2023-04-22T13:45:57;9.93;;;3.00;;
79624;SDS011;69101;45.534;10.218;2023-04-22T13:48:23;9.63;;;3.67;;
79624;SDS011;69101;45.534;10.218;2023-04-22T13:50:48;8.63;;;2.90;;
79624;SDS011;69101;45.534;10.218;2023-04-22T13:53:13;10.98;;;4.70;;
79624;SDS011;69101;45.534;10.218;2023-04-22T13:55:39;8.98;;;2.90;;
79624;SDS011;69101;45.534;10.218;2023-04-22T13:58:04;10.23;;;3.85;;
79624;SDS011;69101;45.534;10.218;2023-04-22T14:00:31;9.88;;;3.90;;
79624;SDS011;69101;45.534;10.218;2023-04-22T14:02:57;9.73;;;3.50;;
79624;SDS011;69101;45.534;10.218;2023-04-22T14:05:23;8.55;;;2.80;;
79624;SDS011;69101;45.534;10.218;2023-04-22T14:07:48;8.60;;;2.58;;
79624;SDS011;69101;45.534;10.218;2023-04-22T14:10:13;9.48;;;3.38;;
79624;SDS011;69101;45.534;10.218;2023-04-22T14:12:40;10.63;;;4.18;;
79624;SDS011;69101;45.534;10.218;2023-04-22T14:15:05;10.25;;;4.07;;
79624;SDS011;69101;45.534;10.218;2023-04-22T14:17:34;9.90;;;3.70;;
79624;SDS011;69101;45.534;10.218;2023-04-22T14:20:00;8.68;;;2.70;;
79624;SDS011;69101;45.534;10.218;2023-04-22T14:22:28;8.85;;;3.08;;
79624;SDS011;69101;45.534;10.218;2023-04-22T14:24:54;9.65;;;3.40;;
79624;SDS011;69101;45.534;10.218;2023-04-22T14:27:20;8.95;;;2.80;;
79624;SDS011;69101;45.534;10.218;2023-04-22T14:29:45;10.15;;;4.10;;
79624;SDS011;69101;45.534;10.218;2023-04-22T14:32:10;9.45;;;3.45;;
79624;SDS011;69101;45.534;10.218;2023-04-22T14:34:36;8.38;;;2.60;;
79624;SDS011;69101;45.534;10.218;2023-04-22T14:37:03;8.20;;;2.30;;
79624;SDS011;69101;45.534;10.218;2023-04-22T14:39:28;8.32;;;2.67;;
79624;SDS011;69101;45.534;10.218;2023-04-22T14:41:53;8.32;;;2.33;;
79624;SDS011;69101;45.534;10.218;2023-04-22T14:44:21;8.02;;;2.45;;
79624;SDS011;69101;45.534;10.218;2023-04-22T14:46:47;8.90;;;2.70;;
79624;SDS011;69101;45.534;10.218;2023-04-22T14:49:12;9.02;;;2.67;;